Time;durP1;ratioP1;P1;durP2;ratioP2;P2;SDS_P1;SDS_P2;PMS_P1;PMS_P2;Temp;Humidity;BMP_temperature;BMP_pressure;BME280_temperature;BME280_humidity;BME280_pressure;Samples;Min_cycle;Max_cycle;Signal;HPM_P1;HPM_P2
2021/06/18 00:00:01;;;;;;;5.43;3.30;;;;;;;25.03;55.23;101252.50;5054441;28;20091;-59
2021/06/18 00:02:26;;;;;;;6.22;3.40;;;;;;;25.04;54.86;101262.19;5053942;28;20387;-59
2021/06/18 00:04:52;;;;;;;4.63;3.00;;;;;;;25.03;55.06;101259.66;5054668;28;20028;-58
2021/06/18 00:07:17;;;;;;;4.60;3.03;;;;;;;25.02;54.75;101256.16;5053991;28;20036;-58
2021/06/18 00:09:42;;;;;;;4.20;2.70;;;;;;;25.02;54.76;101247.31;5053641;28;20274;-58
2021/06/18 00:12:09;;;;;;;5.28;3.10;;;;;;;25.02;54.79;101248.16;5056100;28;20274;-58
2021/06/18 00:14:34;;;;;;;4.82;2.75;;;;;;;25.02;55.17;101250.81;5057596;28;20025;-58
2021/06/18 00:16:59;;;;;;;5.55;3.17;;;;;;;25.02;54.94;101247.31;5058927;28;20136;-58
2021/06/18 00:19:25;;;;;;;4.45;3.20;;;;;;;25.00;55.13;101247.47;5060345;28;20017;-58
2021/06/18 00:21:50;;;;;;;5.43;3.05;;;;;;;25.01;54.81;101248.31;5059661;28;20473;-58
2021/06/18 00:24:15;;;;;;;6.22;3.38;;;;;;;24.99;54.94;101244.00;5061350;28;20025;-58
2021/06/18 00:26:41;;;;;;;4.78;3.20;;;;;;;24.99;55.13;101236.00;5060514;28;20037;-58
2021/06/18 00:29:06;;;;;;;4.80;3.00;;;;;;;24.99;54.75;101229.81;5059975;28;20056;-58
2021/06/18 00:31:32;;;;;;;4.78;3.17;;;;;;;24.98;55.07;101223.66;5061616;28;20025;-59
2021/06/18 00:33:57;;;;;;;4.55;2.97;;;;;;;24.99;54.90;101230.66;5059705;28;20024;-58
2021/06/18 00:36:25;;;;;;;5.30;2.90;;;;;;;24.98;54.81;101234.31;5053440;28;20021;-58
2021/06/18 00:38:51;;;;;;;5.82;3.28;;;;;;;24.97;54.96;101227.31;5054389;28;20273;-58
2021/06/18 00:41:16;;;;;;;4.97;2.80;;;;;;;24.97;54.63;101221.97;5053557;28;20103;-59
2021/06/18 00:43:43;;;;;;;5.00;3.20;;;;;;;24.97;54.98;101215.81;5052991;28;20290;-57
2021/06/18 00:46:08;;;;;;;4.60;3.28;;;;;;;24.98;54.87;101217.50;5053145;28;20033;-59
2021/06/18 00:48:34;;;;;;;5.57;3.17;;;;;;;24.97;54.81;101213.16;5053491;28;20465;-58
2021/06/18 00:51:01;;;;;;;4.93;3.10;;;;;;;24.96;54.75;101204.31;5052644;28;20086;-59
2021/06/18 00:53:26;;;;;;;4.85;3.15;;;;;;;24.97;54.92;101205.16;5052813;28;20033;-58
2021/06/18 00:55:54;;;;;;;4.30;3.10;;;;;;;24.92;54.60;101194.13;5052826;28;20411;-59
2021/06/18 00:58:19;;;;;;;5.00;3.40;;;;;;;24.97;54.71;101208.63;5051975;28;20053;-59
2021/06/18 01:00:48;;;;;;;5.17;2.97;;;;;;;24.96;54.88;101198.16;5052845;28;20039;-58
2021/06/18 01:03:13;;;;;;;4.35;3.33;;;;;;;24.95;54.67;101199.16;5052635;28;20270;-59
2021/06/18 01:05:41;;;;;;;4.75;3.10;;;;;;;24.95;54.98;101202.63;5051923;28;20166;-59
2021/06/18 01:08:23;;;;;;;5.07;2.90;;;;;;;24.95;54.56;101212.47;5052889;28;20029;-59
2021/06/18 01:11:01;;;;;;;4.07;2.92;;;;;;;24.95;54.45;101215.16;5052313;28;20499;-58
2021/06/18 01:13:51;;;;;;;4.82;3.00;;;;;;;24.95;54.86;101221.31;5053209;28;20032;-58
2021/06/18 01:16:23;;;;;;;5.13;3.22;;;;;;;24.96;54.83;101227.50;5052410;28;20536;-58
2021/06/18 01:19:23;;;;;;;4.50;3.13;;;;;;;24.94;54.63;101219.66;5052050;28;20123;-58
2021/06/18 01:21:58;;;;;;;5.20;2.90;;;;;;;24.94;54.67;101230.31;5052900;28;20029;-58
2021/06/18 01:25:01;;;;;;;4.70;2.90;;;;;;;24.93;54.74;101236.63;5052600;28;20021;-57
2021/06/18 01:27:32;;;;;;;4.28;2.85;;;;;;;24.93;54.64;101233.97;5052746;28;20173;-58
2021/06/18 01:30:17;;;;;;;4.50;3.10;;;;;;;24.92;54.42;101237.63;5052807;28;20044;-58
2021/06/18 01:32:52;;;;;;;5.05;3.10;;;;;;;24.92;54.87;101232.28;5051954;28;20029;-59
2021/06/18 01:35:20;;;;;;;5.05;3.22;;;;;;;24.94;54.54;101232.13;5052235;28;20032;-57
2021/06/18 01:37:52;;;;;;;4.65;3.20;;;;;;;24.93;54.77;101228.63;5052679;28;20040;-58
2021/06/18 01:40:20;;;;;;;4.70;3.10;;;;;;;24.94;54.77;101229.47;5051469;28;20033;-57
2021/06/18 01:42:48;;;;;;;4.25;2.80;;;;;;;24.92;54.84;101224.28;5052449;28;20028;-58
2021/06/18 01:45:16;;;;;;;4.97;3.30;;;;;;;24.92;54.58;101229.63;5051857;28;20445;-57
2021/06/18 01:47:44;;;;;;;5.80;3.22;;;;;;;24.92;54.80;101224.28;5051550;28;20321;-57
2021/06/18 01:50:14;;;;;;;4.90;3.13;;;;;;;24.92;54.36;101239.47;5051910;28;20083;-57
2021/06/18 01:52:43;;;;;;;5.25;3.20;;;;;;;24.91;54.66;101219.97;5035100;28;20025;-59
2021/06/18 01:55:12;;;;;;;5.57;3.35;;;;;;;24.90;54.40;101210.28;5051267;28;20060;-58
2021/06/18 01:57:40;;;;;;;5.60;3.45;;;;;;;24.92;54.59;101202.13;5052092;28;20035;-57
2021/06/18 02:00:07;;;;;;;6.03;3.47;;;;;;;24.91;54.54;101198.66;5051192;28;20103;-58
2021/06/18 02:02:34;;;;;;;5.57;3.60;;;;;;;24.91;54.33;101192.47;5051953;28;20464;-57
2021/06/18 02:05:02;;;;;;;5.88;3.38;;;;;;;24.91;54.64;101201.31;5051552;28;20021;-58
2021/06/18 02:07:29;;;;;;;5.28;3.20;;;;;;;24.91;54.82;101195.13;5051286;28;20029;-58
2021/06/18 02:09:56;;;;;;;5.78;3.30;;;;;;;24.92;54.52;101191.47;5051908;28;20465;-58
2021/06/18 02:12:23;;;;;;;5.10;3.33;;;;;;;24.90;54.40;101193.47;5051432;28;20124;-59
2021/06/18 02:14:49;;;;;;;5.22;3.38;;;;;;;24.90;54.75;101194.31;5051059;28;20029;-58
2021/06/18 02:17:15;;;;;;;4.18;2.90;;;;;;;24.90;54.70;101210.28;5051264;28;20045;-58
2021/06/18 02:19:43;;;;;;;5.32;3.38;;;;;;;24.90;54.32;101241.47;5051969;28;20108;-57
2021/06/18 02:22:20;;;;;;;5.32;3.30;;;;;;;24.89;54.47;101277.09;5050559;28;20021;-58
2021/06/18 02:24:48;;;;;;;5.60;3.17;;;;;;;24.90;54.35;101282.28;5051915;28;20025;-58
2021/06/18 02:27:14;;;;;;;4.82;3.25;;;;;;;24.90;54.35;101284.09;5051450;28;20100;-57
2021/06/18 02:29:41;;;;;;;4.35;3.30;;;;;;;24.89;54.31;101274.44;5050790;28;20036;-58
2021/06/18 02:32:08;;;;;;;4.75;3.20;;;;;;;24.90;54.37;101252.94;5051514;28;20025;-58
2021/06/18 02:34:35;;;;;;;4.65;3.20;;;;;;;24.89;54.44;101211.28;5051722;28;20074;-58
2021/06/18 02:37:02;;;;;;;5.65;3.42;;;;;;;24.88;54.31;101188.31;5050916;28;20104;-58
2021/06/18 02:39:28;;;;;;;5.32;3.45;;;;;;;24.87;54.27;101175.97;5051610;28;20058;-58
2021/06/18 02:41:53;;;;;;;5.00;3.40;;;;;;;24.88;54.31;101198.97;5051604;28;20134;-58
2021/06/18 02:44:19;;;;;;;5.10;3.10;;;;;;;24.88;54.25;101209.63;5051189;28;20029;-59
2021/06/18 02:46:54;;;;;;;5.47;3.58;;;;;;;24.88;54.68;101220.28;5052143;28;20021;-59
2021/06/18 02:49:26;;;;;;;5.78;3.20;;;;;;;24.88;54.26;101219.44;5050721;28;20098;-57
2021/06/18 02:52:01;;;;;;;5.00;3.50;;;;;;;24.88;54.35;101206.09;5051665;28;20024;-58
2021/06/18 02:54:34;;;;;;;4.90;3.25;;;;;;;24.88;54.76;101184.78;5051734;28;20025;-58
2021/06/18 02:57:03;;;;;;;4.95;3.00;;;;;;;24.88;54.28;101166.13;5033493;28;20029;-59
2021/06/18 02:59:40;;;;;;;6.35;3.22;;;;;;;24.86;54.71;101144.97;5051571;28;20437;-58
2021/06/18 03:02:09;;;;;;;4.57;3.40;;;;;;;24.86;54.63;101136.97;5051232;28;20075;-58
2021/06/18 03:04:38;;;;;;;5.63;3.40;;;;;;;24.85;54.47;101203.75;5050556;28;20017;-57
2021/06/18 03:07:06;;;;;;;5.82;3.45;;;;;;;24.86;54.37;101360.03;5050995;28;20128;-57
2021/06/18 03:09:39;;;;;;;6.22;3.55;;;;;;;24.87;54.49;101369.72;5051683;28;20025;-58
2021/06/18 03:12:08;;;;;;;4.40;3.13;;;;;;;24.86;54.53;101368.88;5050434;28;20032;-58
2021/06/18 03:14:36;;;;;;;5.65;3.63;;;;;;;24.86;54.43;101336.88;5051472;28;20021;-58
2021/06/18 03:17:05;;;;;;;5.00;3.75;;;;;;;24.84;54.41;101255.41;5052446;28;20041;-59
2021/06/18 03:19:33;;;;;;;5.15;3.40;;;;;;;24.85;54.28;101275.72;5053582;28;20036;-59
2021/06/18 03:22:02;;;;;;;5.68;3.60;;;;;;;24.86;54.73;101234.75;5055230;28;20032;-58
2021/06/18 03:24:30;;;;;;;6.15;3.50;;;;;;;24.85;54.74;101259.75;5054317;28;20017;-57
2021/06/18 03:26:57;;;;;;;5.22;3.40;;;;;;;24.84;54.78;101256.25;5054715;28;20021;-58
2021/06/18 03:29:25;;;;;;;5.75;3.30;;;;;;;24.84;54.67;101231.44;5054456;28;20142;-58
2021/06/18 03:31:53;;;;;;;6.60;3.60;;;;;;;24.84;55.00;101242.09;5053961;28;20028;-59
2021/06/18 03:34:18;;;;;;;4.45;2.80;;;;;;;24.84;54.65;101266.91;5054271;28;20029;-57
2021/06/18 03:36:44;;;;;;;5.05;3.47;;;;;;;24.84;54.99;101308.72;5054561;28;20033;-58
2021/06/18 03:39:09;;;;;;;4.68;3.00;;;;;;;24.84;54.87;101392.19;5053599;28;20096;-60
2021/06/18 03:41:35;;;;;;;5.20;3.40;;;;;;;24.84;54.86;101455.34;5054573;28;20358;-59
2021/06/18 03:44:01;;;;;;;6.93;3.28;;;;;;;24.85;55.00;101507.63;5054610;28;20036;-58
2021/06/18 03:46:27;;;;;;;5.22;2.97;;;;;;;24.84;55.05;101397.53;5053740;28;20025;-58
2021/06/18 03:48:55;;;;;;;5.55;3.00;;;;;;;24.83;55.44;101371.84;5053371;28;20056;-58
2021/06/18 03:51:21;;;;;;;4.93;2.90;;;;;;;24.84;55.06;101351.38;5054261;28;20332;-59
2021/06/18 03:53:46;;;;;;;4.78;2.78;;;;;;;24.82;55.18;101303.56;5053709;28;20108;-57
2021/06/18 03:56:12;;;;;;;5.10;2.90;;;;;;;24.83;55.39;101288.38;5054123;28;20039;-57
2021/06/18 03:58:40;;;;;;;5.63;2.92;;;;;;;24.83;54.98;101269.72;5054347;28;20112;-59
2021/06/18 04:01:09;;;;;;;5.70;3.00;;;;;;;24.81;55.30;101270.72;5052986;28;20025;-58
2021/06/18 04:03:35;;;;;;;5.22;2.80;;;;;;;24.81;55.39;101284.03;5054387;28;20104;-59
2021/06/18 04:06:04;;;;;;;5.70;3.05;;;;;;;24.82;55.07;101282.22;5054347;28;20095;-58
2021/06/18 04:08:31;;;;;;;4.25;2.70;;;;;;;24.82;55.51;101282.22;5053470;28;20032;-58
2021/06/18 04:10:57;;;;;;;4.78;2.70;;;;;;;24.80;55.26;101286.88;5054113;28;20021;-58
2021/06/18 04:13:22;;;;;;;4.82;2.90;;;;;;;24.79;55.40;101291.38;5053716;28;20078;-58
2021/06/18 04:15:48;;;;;;;5.00;2.75;;;;;;;24.81;55.20;101304.53;5052930;28;20152;-59
2021/06/18 04:18:19;;;;;;;5.05;2.70;;;;;;;24.81;55.25;101296.53;5053826;28;20346;-58
2021/06/18 04:20:44;;;;;;;4.68;2.95;;;;;;;24.80;55.33;101298.38;5053325;28;20024;-58
2021/06/18 04:23:10;;;;;;;4.85;2.88;;;;;;;24.81;55.18;101288.53;5053646;28;20017;-58
2021/06/18 04:25:35;;;;;;;5.60;2.80;;;;;;;24.79;55.47;101283.38;5053882;28;20465;-57
2021/06/18 04:28:01;;;;;;;4.88;2.70;;;;;;;24.80;55.54;101279.72;5052367;28;20100;-58
2021/06/18 04:30:27;;;;;;;6.05;2.80;;;;;;;24.80;55.55;101276.19;5053431;28;20096;-58
2021/06/18 04:32:52;;;;;;;4.90;2.58;;;;;;;24.79;55.39;101277.22;5053365;28;20079;-58
2021/06/18 04:35:17;;;;;;;5.28;2.80;;;;;;;24.79;55.14;101282.53;5052564;28;20033;-58
2021/06/18 04:37:43;;;;;;;6.10;2.80;;;;;;;24.78;55.59;101284.38;5053478;28;20032;-59
2021/06/18 04:40:10;;;;;;;6.32;3.00;;;;;;;24.79;55.52;101291.38;5053080;28;20032;-58
2021/06/18 04:42:35;;;;;;;6.00;3.13;;;;;;;24.78;55.54;101297.72;5052592;28;20025;-59
2021/06/18 04:45:01;;;;;;;5.28;2.88;;;;;;;24.79;55.39;101306.53;5053148;28;20035;-58
2021/06/18 04:47:26;;;;;;;4.60;2.78;;;;;;;24.79;55.57;101298.53;5053478;28;20025;-57
2021/06/18 04:49:52;;;;;;;5.18;2.70;;;;;;;24.78;55.30;101284.38;5052743;28;20024;-58
2021/06/18 04:52:17;;;;;;;4.95;2.40;;;;;;;24.78;55.27;101276.38;5053005;28;20025;-58
2021/06/18 04:54:44;;;;;;;5.32;2.60;;;;;;;24.78;55.28;101268.41;5053303;28;20124;-58
2021/06/18 04:57:13;;;;;;;5.28;2.47;;;;;;;24.77;55.66;101269.38;5052207;28;20029;-58
2021/06/18 04:59:38;;;;;;;5.22;2.35;;;;;;;24.78;55.62;101270.19;5053133;28;20036;-58
2021/06/18 05:02:05;;;;;;;4.93;2.60;;;;;;;24.77;55.05;101273.88;5052906;28;20021;-58
2021/06/18 05:04:31;;;;;;;5.30;2.42;;;;;;;24.77;55.53;101269.38;5052578;28;20029;-58
2021/06/18 05:06:56;;;;;;;4.43;2.50;;;;;;;24.77;55.54;101274.72;5052993;28;20047;-58
2021/06/18 05:09:21;;;;;;;5.75;2.28;;;;;;;24.78;55.49;101268.41;5052761;28;20040;-58
2021/06/18 05:11:49;;;;;;;4.45;2.20;;;;;;;24.77;55.31;101264.06;5052302;28;20033;-59
2021/06/18 05:14:15;;;;;;;5.13;2.55;;;;;;;24.78;55.60;101264.88;5052519;28;20043;-58
2021/06/18 05:16:40;;;;;;;4.90;2.45;;;;;;;24.78;55.39;101257.72;5052746;28;20460;-59
2021/06/18 05:19:06;;;;;;;4.10;2.08;;;;;;;24.77;55.43;101265.88;5052057;28;20071;-57
2021/06/18 05:21:32;;;;;;;5.38;2.50;;;;;;;24.79;55.73;101263.88;5052942;28;20028;-57
2021/06/18 05:23:57;;;;;;;4.82;2.22;;;;;;;24.78;55.79;101263.06;5052027;28;20021;-59
2021/06/18 05:26:23;;;;;;;6.07;2.10;;;;;;;24.77;55.43;101263.22;5052385;28;20021;-58
2021/06/18 05:28:48;;;;;;;4.88;2.40;;;;;;;24.78;55.68;101263.06;5052600;28;20025;-58
2021/06/18 05:31:13;;;;;;;4.65;2.17;;;;;;;24.78;55.47;101254.22;5051402;28;20029;-58
2021/06/18 05:33:39;;;;;;;5.03;2.40;;;;;;;24.79;55.71;101261.22;5052741;28;20033;-58
2021/06/18 05:36:05;;;;;;;4.50;2.15;;;;;;;24.77;55.66;101250.72;5052343;28;20021;-59
2021/06/18 05:38:34;;;;;;;5.60;2.60;;;;;;;24.78;55.65;101243.56;5052250;28;20057;-60
2021/06/18 05:40:59;;;;;;;4.32;2.20;;;;;;;24.78;55.68;101247.06;5051816;28;20024;-58
2021/06/18 05:43:33;;;;;;;4.50;2.45;;;;;;;24.78;55.72;101256.88;5052332;28;20350;-59
2021/06/18 05:46:01;;;;;;;3.80;1.80;;;;;;;24.78;55.61;101270.19;5051891;28;20029;-59
2021/06/18 05:48:27;;;;;;;6.18;2.17;;;;;;;24.77;55.59;101277.38;5052606;28;20044;-59
2021/06/18 05:50:53;;;;;;;4.78;2.15;;;;;;;24.74;55.65;101283.03;5052584;28;20021;-56
2021/06/18 05:53:20;;;;;;;4.72;2.20;;;;;;;24.77;55.83;101284.53;5051298;28;20029;-59
2021/06/18 05:55:46;;;;;;;4.40;1.95;;;;;;;24.77;55.83;101290.69;5052040;28;20052;-57
2021/06/18 05:58:11;;;;;;;3.80;1.95;;;;;;;24.77;55.78;101285.38;5051692;28;20029;-58
2021/06/18 06:00:37;;;;;;;4.60;2.00;;;;;;;24.77;55.42;101282.69;5051658;28;20028;-59
2021/06/18 06:03:02;;;;;;;4.07;1.80;;;;;;;24.76;55.79;101278.34;5051964;28;20499;-58
2021/06/18 06:05:27;;;;;;;4.95;2.13;;;;;;;24.77;55.65;101273.88;5052171;28;20277;-57
2021/06/18 06:07:54;;;;;;;4.60;2.17;;;;;;;24.78;55.54;101275.53;5050249;28;20037;-59
2021/06/18 06:10:19;;;;;;;4.38;2.25;;;;;;;24.77;55.36;101276.53;5051687;28;20119;-59
2021/06/18 06:12:47;;;;;;;4.68;2.03;;;;;;;24.78;55.66;101286.19;5051851;28;20473;-58
2021/06/18 06:15:13;;;;;;;3.60;2.05;;;;;;;24.78;55.40;101291.53;5050887;28;20082;-58
2021/06/18 06:17:38;;;;;;;5.72;2.33;;;;;;;24.77;55.37;101277.38;5051543;28;20053;-58
2021/06/18 06:20:05;;;;;;;3.72;1.88;;;;;;;24.78;55.79;101284.38;5051382;28;20036;-58
2021/06/18 06:22:30;;;;;;;4.30;2.13;;;;;;;24.78;55.76;101284.38;5049659;28;20037;-58
2021/06/18 06:24:56;;;;;;;4.25;2.25;;;;;;;24.78;55.41;101283.53;5051658;28;20109;-58
2021/06/18 06:27:26;;;;;;;3.55;1.95;;;;;;;24.78;55.78;101281.72;5050685;28;20029;-58
2021/06/18 06:29:51;;;;;;;6.60;2.30;;;;;;;24.78;55.67;101284.38;5052031;28;20381;-58
2021/06/18 06:32:17;;;;;;;4.82;2.30;;;;;;;24.78;55.45;101287.06;5051581;28;20031;-59
2021/06/18 06:34:43;;;;;;;6.20;2.35;;;;;;;24.78;55.93;101294.19;5051198;28;20388;-63
2021/06/18 06:37:08;;;;;;;6.13;4.00;;;;;;;24.77;56.77;101289.88;5051556;28;20080;-57
2021/06/18 06:39:34;;;;;;;8.38;5.45;;;;;;;24.75;57.92;101289.19;5051683;28;20032;-57
2021/06/18 06:42:01;;;;;;;7.30;6.10;;;;;;;24.71;58.31;101290.50;5050052;28;20120;-58
2021/06/18 06:44:26;;;;;;;9.52;7.03;;;;;;;24.67;59.55;101291.78;5051592;28;20270;-58
2021/06/18 06:46:52;;;;;;;9.30;6.80;;;;;;;24.62;60.12;101286.94;5051755;28;20147;-57
2021/06/18 06:49:17;;;;;;;8.95;6.63;;;;;;;24.58;60.32;101291.75;5050297;28;20457;-57
2021/06/18 06:51:42;;;;;;;9.55;7.35;;;;;;;24.54;60.76;101290.34;5052819;28;20044;-57
2021/06/18 06:54:08;;;;;;;8.57;6.93;;;;;;;24.52;60.68;101297.66;5054739;28;20533;-57
2021/06/18 06:56:36;;;;;;;9.15;7.35;;;;;;;24.50;60.58;101290.81;5054653;28;20364;-57
2021/06/18 06:59:01;;;;;;;10.20;7.57;;;;;;;24.48;60.85;101282.97;5055391;28;20056;-59
2021/06/18 07:01:26;;;;;;;9.13;7.47;;;;;;;24.44;60.89;101279.78;5055510;28;20099;-59
2021/06/18 07:03:51;;;;;;;9.60;7.53;;;;;;;24.45;61.13;101284.16;5054608;28;20105;-57
2021/06/18 07:06:17;;;;;;;10.93;8.10;;;;;;;24.44;61.47;101289.63;5055265;28;20056;-57
2021/06/18 07:08:42;;;;;;;10.13;7.87;;;;;;;24.44;61.63;101284.31;5055254;28;20270;-57
2021/06/18 07:11:10;;;;;;;10.03;7.00;;;;;;;24.44;60.99;101282.47;5054502;28;20844;-58
2021/06/18 07:13:35;;;;;;;9.90;5.60;;;;;;;24.45;60.50;101276.16;5055475;28;20284;-58
2021/06/18 07:16:01;;;;;;;7.30;5.03;;;;;;;24.50;60.59;101275.69;5055153;28;20366;-58
2021/06/18 07:18:26;;;;;;;8.60;5.32;;;;;;;24.55;60.40;101268.06;5054252;28;20288;-58
2021/06/18 07:20:52;;;;;;;6.88;5.10;;;;;;;24.58;60.38;101259.78;5055194;28;20021;-58
2021/06/18 07:23:17;;;;;;;6.43;4.35;;;;;;;24.59;60.04;101250.81;5054689;28;20107;-58
2021/06/18 07:25:44;;;;;;;7.03;4.95;;;;;;;24.65;60.06;101246.66;5054187;28;20591;-57
2021/06/18 07:28:10;;;;;;;7.57;4.88;;;;;;;24.67;59.93;101247.31;5054599;28;20070;-58
2021/06/18 07:30:36;;;;;;;7.55;5.10;;;;;;;24.68;59.91;101242.84;5054318;28;20468;-57
2021/06/18 07:33:02;;;;;;;6.90;5.20;;;;;;;24.67;59.62;101226.00;5054846;28;20107;-57
2021/06/18 07:35:27;;;;;;;9.32;6.47;;;;;;;24.68;60.43;101233.00;5055082;28;20106;-56
2021/06/18 07:37:56;;;;;;;8.38;6.72;;;;;;;24.66;61.12;101226.16;5053824;28;20368;-58
2021/06/18 07:40:24;;;;;;;10.93;7.07;;;;;;;24.62;61.61;101222.97;5054572;28;20052;-57
2021/06/18 07:42:50;;;;;;;8.50;6.95;;;;;;;24.61;61.56;101229.34;5054885;28;20035;-58
2021/06/18 07:45:15;;;;;;;8.98;7.80;;;;;;;24.57;62.32;101228.78;5053749;28;20375;-58
2021/06/18 07:47:41;;;;;;;9.20;7.07;;;;;;;24.55;62.03;101241.41;5054441;28;20097;-61
2021/06/18 07:50:10;;;;;;;9.20;7.82;;;;;;;24.57;62.58;101247.44;5054202;28;20032;-58
2021/06/18 07:52:36;;;;;;;9.23;7.22;;;;;;;24.58;62.29;101243.78;5053658;28;20110;-59
2021/06/18 07:55:06;;;;;;;10.50;7.73;;;;;;;24.57;62.59;101218.13;5054308;28;20033;-58
2021/06/18 07:57:32;;;;;;;10.32;8.38;;;;;;;24.59;63.32;101225.97;5054550;28;20285;-59
2021/06/18 07:59:57;;;;;;;11.32;8.13;;;;;;;24.58;63.49;101216.31;5053710;28;20368;-59
2021/06/18 08:02:22;;;;;;;10.05;8.38;;;;;;;24.59;63.59;101216.16;5053259;28;20053;-58
2021/06/18 08:04:48;;;;;;;9.30;7.60;;;;;;;24.61;63.50;101211.50;5053751;28;20028;-61
2021/06/18 08:07:14;;;;;;;10.55;8.57;;;;;;;24.59;64.20;101216.16;5053306;28;20036;-59
2021/06/18 08:09:39;;;;;;;10.07;7.97;;;;;;;24.55;64.46;101203.28;5055411;28;20385;-62
2021/06/18 08:12:04;;;;;;;11.27;8.65;;;;;;;24.52;65.16;101203.59;5055178;28;20087;-62
2021/06/18 08:14:30;;;;;;;11.52;8.73;;;;;;;24.45;65.23;101211.41;5053852;28;20028;-61
2021/06/18 08:16:55;;;;;;;10.70;8.57;;;;;;;24.40;64.99;101213.66;5054394;28;20052;-62
2021/06/18 08:19:21;;;;;;;11.10;8.18;;;;;;;24.39;65.62;101214.69;5055309;28;20033;-63
2021/06/18 08:21:52;;;;;;;9.35;8.35;;;;;;;24.38;65.64;101219.16;5053936;28;20028;-61
2021/06/18 08:24:18;;;;;;;9.90;7.82;;;;;;;24.37;65.82;101211.31;5054209;28;20029;-60
2021/06/18 08:26:43;;;;;;;10.23;8.77;;;;;;;24.34;66.14;101204.50;5051011;28;20055;-60
2021/06/18 08:29:08;;;;;;;10.82;8.73;;;;;;;24.35;66.19;101200.00;5053530;28;20312;-59
2021/06/18 08:31:36;;;;;;;10.85;7.95;;;;;;;24.36;66.68;101210.50;5054229;28;20520;-58
2021/06/18 08:34:04;;;;;;;11.15;8.85;;;;;;;24.38;67.00;101213.81;5052941;28;20075;-60
2021/06/18 08:36:29;;;;;;;11.75;9.82;;;;;;;24.35;66.47;101214.13;5054233;28;20044;-58
2021/06/18 08:38:55;;;;;;;11.23;8.82;;;;;;;24.39;66.93;101220.00;5054322;28;20465;-61
2021/06/18 08:41:20;;;;;;;13.10;9.45;;;;;;;24.39;66.96;101207.50;5053170;28;20032;-62
2021/06/18 08:43:46;;;;;;;12.38;9.43;;;;;;;24.42;67.22;101204.53;5054896;28;20534;-59
2021/06/18 08:46:12;;;;;;;11.43;9.95;;;;;;;24.47;66.53;101209.41;5053593;28;20123;-62
2021/06/18 08:48:37;;;;;;;12.52;10.13;;;;;;;24.50;66.50;101208.22;5052992;28;20088;-62
2021/06/18 08:51:04;;;;;;;13.52;10.80;;;;;;;24.52;66.16;101203.59;5053514;28;20029;-60
2021/06/18 08:53:34;;;;;;;11.55;10.13;;;;;;;24.54;65.99;101199.75;5053501;28;20460;-59
2021/06/18 08:56:00;;;;;;;13.48;10.13;;;;;;;24.55;66.03;101204.09;5053397;28;20028;-59
2021/06/18 08:58:26;;;;;;;10.88;9.55;;;;;;;24.57;66.09;101203.97;5053207;28;20036;-58
2021/06/18 09:00:51;;;;;;;12.00;10.30;;;;;;;24.60;66.06;101203.66;5053374;28;20021;-59
2021/06/18 09:03:36;;;;;;;13.30;10.25;;;;;;;24.65;65.38;101208.53;5052104;28;20033;-62
2021/06/18 09:06:28;;;;;;;12.73;9.93;;;;;;;24.68;66.17;101200.22;5053370;28;20108;-60
2021/06/18 09:09:14;;;;;;;12.18;8.82;;;;;;;24.73;65.88;101204.06;5042852;28;20040;-58
2021/06/18 09:11:50;;;;;;;10.05;8.95;;;;;;;24.77;65.18;101202.75;5053388;28;20029;-59
2021/06/18 09:14:21;;;;;;;10.57;9.25;;;;;;;24.83;64.49;101206.59;5053153;28;20025;-59
2021/06/18 09:17:05;;;;;;;10.80;9.70;;;;;;;24.87;64.02;101199.94;5052304;28;20025;-59
2021/06/18 09:19:31;;;;;;;11.20;9.63;;;;;;;24.91;64.19;101201.31;5053049;28;20036;-60
2021/06/18 09:22:01;;;;;;;12.80;9.60;;;;;;;24.94;63.89;101201.00;5053180;28;20051;-60
2021/06/18 09:24:29;;;;;;;11.07;9.30;;;;;;;24.98;63.95;101194.31;5052810;28;20055;-59
2021/06/18 09:26:54;;;;;;;12.43;9.20;;;;;;;25.00;63.28;101196.81;5053047;28;20119;-59
2021/06/18 09:29:21;;;;;;;11.20;8.90;;;;;;;25.02;63.38;101191.34;5052579;28;20040;-66
2021/06/18 09:31:59;;;;;;;10.43;9.07;;;;;;;25.06;63.13;101198.03;5052274;28;20025;-60
2021/06/18 09:35:00;;;;;;;12.00;9.48;;;;;;;25.07;63.05;101195.19;5052507;28;20063;-60
2021/06/18 09:37:33;;;;;;;10.13;9.10;;;;;;;25.08;62.84;101175.50;5051763;28;20036;-58
2021/06/18 09:40:09;;;;;;;11.07;9.77;;;;;;;25.10;62.60;101170.88;5053590;28;20045;-59
2021/06/18 09:42:46;;;;;;;10.60;8.98;;;;;;;25.13;62.41;101167.03;5054263;28;20033;-61
2021/06/18 09:45:13;;;;;;;10.25;9.18;;;;;;;25.16;62.69;101166.69;5051545;28;20021;-58
2021/06/18 09:47:40;;;;;;;10.02;9.10;;;;;;;25.18;62.29;101172.69;5052894;28;20112;-59
2021/06/18 09:50:22;;;;;;;10.65;9.23;;;;;;;25.18;62.25;101164.69;5052480;28;20024;-60
2021/06/18 09:52:48;;;;;;;10.98;9.05;;;;;;;25.22;62.46;101176.72;5051804;28;20065;-59
2021/06/18 09:55:23;;;;;;;10.02;8.50;;;;;;;25.23;62.21;101165.06;5052233;28;20499;-58
2021/06/18 09:57:55;;;;;;;12.23;9.48;;;;;;;25.25;61.98;101165.72;5052532;28;20036;-59
2021/06/18 10:00:26;;;;;;;9.48;8.52;;;;;;;25.27;61.95;101162.91;5051587;28;20078;-58
2021/06/18 10:02:53;;;;;;;10.00;8.88;;;;;;;25.27;61.65;101166.38;5052332;28;20025;-60
2021/06/18 10:05:22;;;;;;;10.77;8.50;;;;;;;25.28;61.62;101159.28;5051280;28;20405;-57
2021/06/18 10:07:50;;;;;;;9.55;8.20;;;;;;;25.29;61.93;101159.09;5052304;28;20032;-61
2021/06/18 10:10:23;;;;;;;9.20;8.25;;;;;;;25.31;61.86;101148.25;5052324;28;20035;-61
2021/06/18 10:12:50;;;;;;;9.32;8.32;;;;;;;25.32;61.55;101149.91;5052035;28;20032;-59
2021/06/18 10:15:23;;;;;;;8.88;7.63;;;;;;;25.32;61.33;101145.41;5052065;28;20413;-61
2021/06/18 10:17:50;;;;;;;9.33;8.03;;;;;;;25.33;61.80;101147.09;5052191;28;20049;-60
2021/06/18 10:20:18;;;;;;;9.30;7.43;;;;;;;25.37;61.35;101149.44;5051172;28;20037;-60
2021/06/18 10:22:55;;;;;;;8.18;7.35;;;;;;;25.38;61.43;101143.94;5052209;28;20032;-60
2021/06/18 10:25:28;;;;;;;8.55;7.63;;;;;;;25.39;61.50;101134.94;5052012;28;20029;-59
2021/06/18 10:27:55;;;;;;;8.27;7.47;;;;;;;25.41;61.74;101121.44;5050915;28;20130;-59
2021/06/18 10:30:34;;;;;;;7.80;7.00;;;;;;;25.43;61.37;101122.91;5051810;28;20033;-58
2021/06/18 10:33:20;;;;;;;8.38;7.38;;;;;;;25.41;61.40;101116.94;5051812;28;20507;-60
2021/06/18 10:35:58;;;;;;;8.00;6.90;;;;;;;25.43;61.16;101119.41;5051930;28;20441;-60
2021/06/18 10:38:38;;;;;;;9.55;7.22;;;;;;;25.44;61.44;101113.09;5052033;28;20399;-59
2021/06/18 10:41:12;;;;;;;7.97;6.97;;;;;;;25.44;61.04;101119.25;5050928;28;20021;-60
2021/06/18 10:43:50;;;;;;;9.57;7.03;;;;;;;25.45;61.12;101120.09;5051904;28;20033;-60
2021/06/18 10:46:38;;;;;;;7.75;6.95;;;;;;;25.44;60.57;101115.75;5051591;28;20024;-59
2021/06/18 10:49:13;;;;;;;7.65;6.30;;;;;;;25.43;60.65;101114.91;5050655;28;20021;-58
2021/06/18 10:51:44;;;;;;;8.90;6.60;;;;;;;25.44;60.71;101121.09;5051552;28;20492;-58
2021/06/18 10:54:17;;;;;;;8.68;6.80;;;;;;;25.43;60.23;101106.09;5051217;28;20456;-57
2021/06/18 10:56:45;;;;;;;6.97;6.25;;;;;;;25.44;60.45;101107.75;5050837;28;20435;-61
2021/06/18 10:59:56;;;;;;;9.07;6.68;;;;;;;25.46;60.49;101111.91;5051442;28;20025;-59
2021/06/18 11:02:30;;;;;;;8.88;6.47;;;;;;;25.48;60.48;101109.06;5012616;28;20051;-59
2021/06/18 11:05:03;;;;;;;8.45;6.88;;;;;;;25.47;60.85;101100.25;5051835;28;20025;-58
2021/06/18 11:07:41;;;;;;;8.70;6.73;;;;;;;25.49;60.51;101105.41;5051496;28;20571;-60
2021/06/18 11:10:07;;;;;;;7.95;6.35;;;;;;;25.51;60.30;101106.91;5050617;28;20028;-59
2021/06/18 11:12:34;;;;;;;7.05;6.20;;;;;;;25.50;60.49;101097.25;5051510;28;20503;-59
2021/06/18 11:15:16;;;;;;;8.13;6.22;;;;;;;25.53;60.34;101094.25;5051763;28;20025;-59
2021/06/18 11:17:49;;;;;;;7.65;5.93;;;;;;;25.55;60.39;101095.91;5050338;28;20045;-58
2021/06/18 11:20:21;;;;;;;7.38;6.45;;;;;;;25.54;60.37;101095.06;5051283;28;20104;-57
2021/06/18 11:23:13;;;;;;;8.95;5.97;;;;;;;25.54;60.43;101097.75;5050555;28;20037;-59
2021/06/18 11:25:44;;;;;;;9.07;5.88;;;;;;;25.55;59.91;101102.09;5051184;28;20384;-59
2021/06/18 11:28:19;;;;;;;8.18;5.97;;;;;;;25.56;60.39;101101.06;5051120;28;20056;-60
2021/06/18 11:31:17;;;;;;;7.35;5.57;;;;;;;25.57;60.12;101097.41;5050532;28;20032;-58